DLH48H LPFR-EDDM
Flight info
| Callsign | DLH48H |
|---|---|
| Flight time | 2h 38m |
| Altitude | 36000 |
| Route | TUPIX Y135 NAPES N747 PIMUR DCT OXACA DCT HIJ N10 VTB N871 TOPTU DCT TOU DCT GAI DCT MEN DCT NINUN DCT LATAM DCT ETREK DCT LTP DCT SOPLO DCT OMASI DCT KINNI DCT LAMUR DCT KORED DCT BERSU N871 DITON DCT NUNRI T103 BETOS BETOS1A |
| Aircraft | A320/M-SDE2E3FGIJ1LORWXYZ/HB1 |
Departure
| Time | 2026-05-01 10:39 |
|---|---|
| Airport | Faro - Gago Coutinho International Airport (LPFR) |
Arrival
| Time | 2026-05-01 13:18 |
|---|---|
| Airport | Munich Airport (EDDM) |
| Time | Latitude | Longitude | Altitude | Speed | Heading |
|---|---|---|---|---|---|
| 2026-05-01 10:26 | 37.01851 | -7.97002 | 22 ft | 4 kts | 9° |
| 2026-05-01 10:27 | 37.01839 | -7.97004 | 22 ft | 0 kts | 9° |
| 2026-05-01 10:29 | 37.01819 | -7.97014 | 20 ft | 3 kts | 51° |
| 2026-05-01 10:29 | 37.01812 | -7.97027 | 21 ft | 2 kts | 69° |
| 2026-05-01 10:30 | 37.01806 | -7.97062 | 20 ft | 0 kts | 90° |
| 2026-05-01 10:32 | 37.01806 | -7.97050 | 20 ft | 1 kts | 94° |
| 2026-05-01 10:33 | 37.01794 | -7.96949 | 20 ft | 11 kts | 99° |
| 2026-05-01 10:33 | 37.01668 | -7.96861 | 20 ft | 12 kts | 112° |
| 2026-05-01 10:34 | 37.01652 | -7.96760 | 20 ft | 11 kts | 100° |
| 2026-05-01 10:34 | 37.01638 | -7.96663 | 20 ft | 11 kts | 100° |
| 2026-05-01 10:34 | 37.01625 | -7.96572 | 22 ft | 10 kts | 100° |
| 2026-05-01 10:35 | 37.01604 | -7.96429 | 20 ft | 7 kts | 100° |
| 2026-05-01 10:35 | 37.01596 | -7.96370 | 20 ft | 7 kts | 100° |
| 2026-05-01 10:35 | 37.01587 | -7.96309 | 20 ft | 8 kts | 99° |
| 2026-05-01 10:35 | 37.01576 | -7.96229 | 20 ft | 11 kts | 100° |
| 2026-05-01 10:36 | 37.01539 | -7.95969 | 21 ft | 18 kts | 100° |
| 2026-05-01 10:36 | 37.01508 | -7.95852 | 18 ft | 11 kts | 130° |
| 2026-05-01 10:36 | 37.01469 | -7.95841 | 19 ft | 3 kts | 187° |
| 2026-05-01 10:37 | 37.01461 | -7.95842 | 19 ft | 0 kts | 188° |
| 2026-05-01 10:37 | 37.01458 | -7.95842 | 19 ft | 3 kts | 188° |
| 2026-05-01 10:38 | 37.01413 | -7.95851 | 20 ft | 7 kts | 189° |
| 2026-05-01 10:38 | 37.01375 | -7.95860 | 22 ft | 5 kts | 196° |
| 2026-05-01 10:38 | 37.01351 | -7.95924 | 21 ft | 12 kts | 275° |
| 2026-05-01 10:38 | 37.01377 | -7.96122 | 21 ft | 52 kts | 278° |
| 2026-05-01 10:39 | 37.01484 | -7.96873 | 22 ft | 120 kts | 280° |
| 2026-05-01 10:39 | 37.01661 | -7.98132 | 41 ft | 170 kts | 280° |
| 2026-05-01 10:39 | 37.01884 | -7.99599 | 671 ft | 170 kts | 279° |
| 2026-05-01 10:39 | 37.02093 | -8.01052 | 1470 ft | 167 kts | 278° |
| 2026-05-01 10:40 | 37.02298 | -8.02484 | 2121 ft | 169 kts | 280° |
| 2026-05-01 10:40 | 37.02529 | -8.03920 | 2704 ft | 172 kts | 281° |
| 2026-05-01 10:40 | 37.02758 | -8.05419 | 3233 ft | 177 kts | 279° |
| 2026-05-01 10:40 | 37.02967 | -8.06941 | 3843 ft | 178 kts | 278° |
| 2026-05-01 10:41 | 37.02843 | -8.08480 | 4304 ft | 185 kts | 242° |
| 2026-05-01 10:41 | 37.01932 | -8.09602 | 4788 ft | 191 kts | 204° |
| 2026-05-01 10:41 | 36.99271 | -8.09557 | 5728 ft | 207 kts | 149° |
| 2026-05-01 10:42 | 36.98240 | -8.08269 | 6168 ft | 218 kts | 127° |
| 2026-05-01 10:42 | 36.97430 | -8.06617 | 6479 ft | 236 kts | 120° |
| 2026-05-01 10:42 | 36.96664 | -8.04670 | 6717 ft | 263 kts | 116° |
| 2026-05-01 10:42 | 36.95889 | -8.02511 | 7173 ft | 280 kts | 115° |
| 2026-05-01 10:43 | 36.95093 | -8.00250 | 7878 ft | 284 kts | 117° |
| 2026-05-01 10:43 | 36.94247 | -7.98022 | 8778 ft | 283 kts | 118° |
| 2026-05-01 10:43 | 36.93357 | -7.95818 | 9586 ft | 287 kts | 119° |
| 2026-05-01 10:43 | 36.92425 | -7.93596 | 10326 ft | 290 kts | 121° |
| 2026-05-01 10:44 | 36.91438 | -7.91313 | 10685 ft | 310 kts | 121° |
| 2026-05-01 10:44 | 36.90379 | -7.88855 | 10893 ft | 333 kts | 120° |
| 2026-05-01 10:44 | 36.89265 | -7.86254 | 11113 ft | 353 kts | 120° |
| 2026-05-01 10:44 | 36.88272 | -7.83410 | 11642 ft | 363 kts | 106° |
| 2026-05-01 10:45 | 36.88033 | -7.80250 | 12272 ft | 371 kts | 86° |
| 2026-05-01 10:45 | 36.88697 | -7.77129 | 12927 ft | 377 kts | 65° |
| 2026-05-01 10:45 | 36.90023 | -7.74284 | 13599 ft | 381 kts | 59° |
| 2026-05-01 10:45 | 36.91418 | -7.71460 | 14240 ft | 384 kts | 59° |
| 2026-05-01 10:46 | 36.92829 | -7.68607 | 14830 ft | 388 kts | 59° |
| 2026-05-01 10:46 | 36.94247 | -7.65727 | 15408 ft | 391 kts | 59° |
| 2026-05-01 10:46 | 36.95679 | -7.62812 | 15973 ft | 395 kts | 59° |
| 2026-05-01 10:46 | 36.97103 | -7.59912 | 16521 ft | 399 kts | 59° |
| 2026-05-01 10:47 | 36.98557 | -7.56942 | 17063 ft | 403 kts | 59° |
| 2026-05-01 10:47 | 37.00026 | -7.53938 | 17609 ft | 406 kts | 59° |
| 2026-05-01 10:47 | 37.01506 | -7.50908 | 18148 ft | 410 kts | 59° |
| 2026-05-01 10:47 | 37.02996 | -7.47850 | 18644 ft | 414 kts | 59° |
| 2026-05-01 10:48 | 37.04497 | -7.44761 | 19090 ft | 417 kts | 59° |
| 2026-05-01 10:48 | 37.06006 | -7.41646 | 19554 ft | 420 kts | 59° |
| 2026-05-01 10:48 | 37.07498 | -7.38491 | 20013 ft | 423 kts | 63° |
| 2026-05-01 10:48 | 37.08698 | -7.35176 | 20454 ft | 425 kts | 68° |
| 2026-05-01 10:49 | 37.09861 | -7.31757 | 20904 ft | 428 kts | 68° |
| 2026-05-01 10:49 | 37.11032 | -7.28319 | 21348 ft | 431 kts | 68° |
| 2026-05-01 10:49 | 37.12212 | -7.24858 | 21787 ft | 433 kts | 68° |
| 2026-05-01 10:49 | 37.13397 | -7.21373 | 22224 ft | 436 kts | 68° |
| 2026-05-01 10:50 | 37.14587 | -7.17865 | 22662 ft | 439 kts | 68° |
| 2026-05-01 10:50 | 37.15787 | -7.14334 | 23075 ft | 442 kts | 68° |
| 2026-05-01 10:50 | 37.16994 | -7.10781 | 23506 ft | 444 kts | 68° |
| 2026-05-01 10:50 | 37.18188 | -7.07257 | 23882 ft | 447 kts | 68° |
| 2026-05-01 10:51 | 37.19374 | -7.03647 | 24217 ft | 449 kts | 72° |
| 2026-05-01 10:51 | 37.20216 | -6.99880 | 24548 ft | 449 kts | 78° |
| 2026-05-01 10:51 | 37.20922 | -6.96049 | 24896 ft | 452 kts | 78° |
| 2026-05-01 10:51 | 37.21638 | -6.92207 | 25231 ft | 454 kts | 78° |
| 2026-05-01 10:52 | 37.22363 | -6.88345 | 25556 ft | 456 kts | 78° |
| 2026-05-01 10:52 | 37.23092 | -6.84466 | 25890 ft | 458 kts | 78° |
| 2026-05-01 10:52 | 37.23822 | -6.80568 | 26233 ft | 460 kts | 78° |
| 2026-05-01 10:52 | 37.24544 | -6.76703 | 26548 ft | 462 kts | 78° |
| 2026-05-01 10:53 | 37.25277 | -6.72768 | 26859 ft | 464 kts | 78° |
| 2026-05-01 10:53 | 37.26013 | -6.68811 | 27180 ft | 466 kts | 78° |
| 2026-05-01 10:53 | 37.26749 | -6.64838 | 27485 ft | 468 kts | 78° |
| 2026-05-01 10:53 | 37.27507 | -6.60848 | 27777 ft | 471 kts | 76° |
| 2026-05-01 10:54 | 37.28635 | -6.56978 | 28047 ft | 475 kts | 66° |
| 2026-05-01 10:54 | 37.30276 | -6.53366 | 28324 ft | 478 kts | 55° |
| 2026-05-01 10:54 | 37.32399 | -6.50141 | 28602 ft | 481 kts | 45° |
| 2026-05-01 10:54 | 37.34897 | -6.47427 | 28854 ft | 483 kts | 35° |
| 2026-05-01 10:55 | 37.37725 | -6.45135 | 29105 ft | 485 kts | 31° |
| 2026-05-01 10:55 | 37.40602 | -6.42899 | 29374 ft | 487 kts | 31° |
| 2026-05-01 10:55 | 37.43483 | -6.40653 | 29662 ft | 488 kts | 31° |
| 2026-05-01 10:55 | 37.46363 | -6.38396 | 30050 ft | 487 kts | 31° |
| 2026-05-01 10:56 | 37.49236 | -6.36139 | 30390 ft | 487 kts | 31° |
| 2026-05-01 10:56 | 37.52106 | -6.33884 | 30717 ft | 486 kts | 31° |
| 2026-05-01 10:56 | 37.54974 | -6.31631 | 31031 ft | 486 kts | 32° |
| 2026-05-01 10:56 | 37.57839 | -6.29377 | 31358 ft | 485 kts | 32° |
| 2026-05-01 10:57 | 37.60696 | -6.27130 | 31689 ft | 484 kts | 32° |
| 2026-05-01 10:57 | 37.63512 | -6.24915 | 32013 ft | 483 kts | 32° |
| 2026-05-01 10:57 | 37.66359 | -6.22672 | 32344 ft | 482 kts | 32° |
| 2026-05-01 10:57 | 37.69199 | -6.20434 | 32673 ft | 481 kts | 32° |
| 2026-05-01 10:58 | 37.72034 | -6.18198 | 33008 ft | 480 kts | 32° |
| 2026-05-01 10:58 | 37.74860 | -6.15968 | 33339 ft | 479 kts | 32° |
| 2026-05-01 10:58 | 37.77683 | -6.13742 | 33676 ft | 478 kts | 32° |
| 2026-05-01 10:58 | 37.80500 | -6.11517 | 34009 ft | 477 kts | 32° |
| 2026-05-01 10:59 | 37.83308 | -6.09297 | 34313 ft | 476 kts | 33° |
| 2026-05-01 10:59 | 37.86073 | -6.07108 | 34575 ft | 475 kts | 33° |
| 2026-05-01 10:59 | 37.88873 | -6.04885 | 34853 ft | 475 kts | 33° |
| 2026-05-01 10:59 | 37.91667 | -6.02663 | 35075 ft | 475 kts | 33° |
| 2026-05-01 11:00 | 37.94334 | -6.00212 | 35144 ft | 473 kts | 42° |
| 2026-05-01 11:00 | 37.98729 | -5.94077 | 35148 ft | 470 kts | 53° |
| 2026-05-01 11:01 | 38.02785 | -5.87573 | 35150 ft | 470 kts | 53° |
| 2026-05-01 11:01 | 38.06832 | -5.81122 | 35148 ft | 470 kts | 53° |
| 2026-05-01 11:02 | 38.10904 | -5.74617 | 35147 ft | 471 kts | 53° |
| 2026-05-01 11:02 | 38.14965 | -5.68098 | 35149 ft | 471 kts | 53° |
| 2026-05-01 11:03 | 38.19028 | -5.61562 | 35148 ft | 471 kts | 54° |
| 2026-05-01 11:03 | 38.23088 | -5.55009 | 35150 ft | 472 kts | 54° |
| 2026-05-01 11:04 | 38.27119 | -5.48500 | 35148 ft | 472 kts | 53° |
| 2026-05-01 11:04 | 38.31187 | -5.41928 | 35146 ft | 472 kts | 53° |
| 2026-05-01 11:05 | 38.35246 | -5.35346 | 35144 ft | 472 kts | 53° |
| 2026-05-01 11:05 | 38.39303 | -5.28751 | 35149 ft | 473 kts | 53° |
| 2026-05-01 11:06 | 38.43367 | -5.22151 | 35149 ft | 473 kts | 53° |
| 2026-05-01 11:06 | 38.47389 | -5.15575 | 35152 ft | 473 kts | 53° |
| 2026-05-01 11:07 | 38.53899 | -5.06106 | 35148 ft | 475 kts | 45° |
| 2026-05-01 11:07 | 38.58623 | -5.00202 | 35153 ft | 475 kts | 45° |
| 2026-05-01 11:08 | 38.63305 | -4.94326 | 35151 ft | 475 kts | 45° |
| 2026-05-01 11:09 | 38.70372 | -4.85421 | 35156 ft | 475 kts | 45° |
| 2026-05-01 11:09 | 38.75080 | -4.79473 | 35158 ft | 476 kts | 45° |
| 2026-05-01 11:10 | 38.82146 | -4.70537 | 35156 ft | 476 kts | 45° |
| 2026-05-01 11:10 | 38.86820 | -4.64605 | 35168 ft | 476 kts | 45° |
| 2026-05-01 11:11 | 38.91525 | -4.58624 | 35162 ft | 476 kts | 45° |
| 2026-05-01 11:11 | 38.96229 | -4.52632 | 35164 ft | 476 kts | 45° |
| 2026-05-01 11:12 | 39.00926 | -4.46628 | 35163 ft | 476 kts | 45° |
| 2026-05-01 11:12 | 39.05592 | -4.40663 | 35164 ft | 476 kts | 45° |
| 2026-05-01 11:13 | 39.10285 | -4.34646 | 35162 ft | 476 kts | 44° |
| 2026-05-01 11:13 | 39.14979 | -4.28617 | 35163 ft | 477 kts | 44° |
| 2026-05-01 11:14 | 39.19675 | -4.22584 | 35165 ft | 477 kts | 44° |
| 2026-05-01 11:14 | 39.24367 | -4.16537 | 35160 ft | 477 kts | 44° |
| 2026-05-01 11:15 | 39.28991 | -4.10554 | 35480 ft | 476 kts | 44° |
| 2026-05-01 11:15 | 39.31328 | -4.07533 | 35729 ft | 475 kts | 44° |
| 2026-05-01 11:15 | 39.33664 | -4.04510 | 35980 ft | 475 kts | 44° |
| 2026-05-01 11:16 | 39.35998 | -4.01487 | 36136 ft | 476 kts | 44° |
| 2026-05-01 11:16 | 39.38339 | -3.98448 | 36163 ft | 477 kts | 44° |
| 2026-05-01 11:16 | 39.43026 | -3.92355 | 36162 ft | 478 kts | 44° |
| 2026-05-01 11:17 | 39.47681 | -3.86291 | 36159 ft | 478 kts | 44° |
| 2026-05-01 11:17 | 39.52362 | -3.80175 | 36160 ft | 478 kts | 44° |
| 2026-05-01 11:18 | 39.57046 | -3.74048 | 36161 ft | 479 kts | 44° |
| 2026-05-01 11:18 | 39.61735 | -3.67921 | 36165 ft | 479 kts | 44° |
| 2026-05-01 11:19 | 39.66422 | -3.61772 | 36171 ft | 479 kts | 44° |
| 2026-05-01 11:19 | 39.71067 | -3.55655 | 36172 ft | 479 kts | 44° |
| 2026-05-01 11:20 | 39.75742 | -3.49492 | 36173 ft | 479 kts | 44° |
| 2026-05-01 11:20 | 39.80848 | -3.44028 | 36170 ft | 475 kts | 31° |
| 2026-05-01 11:21 | 39.86376 | -3.39312 | 36166 ft | 475 kts | 31° |
| 2026-05-01 11:21 | 39.91858 | -3.34597 | 36170 ft | 475 kts | 31° |
| 2026-05-01 11:22 | 39.97374 | -3.29843 | 36172 ft | 476 kts | 31° |
| 2026-05-01 11:22 | 40.02895 | -3.25068 | 36180 ft | 476 kts | 31° |
| 2026-05-01 11:23 | 40.08411 | -3.20291 | 36185 ft | 476 kts | 31° |
| 2026-05-01 11:23 | 40.13927 | -3.15516 | 36190 ft | 476 kts | 31° |
| 2026-05-01 11:24 | 40.19313 | -3.10580 | 36187 ft | 476 kts | 34° |
| 2026-05-01 11:25 | 40.27240 | -3.02720 | 36182 ft | 477 kts | 35° |
| 2026-05-01 11:25 | 40.35193 | -2.94912 | 36196 ft | 476 kts | 34° |
| 2026-05-01 11:26 | 40.43154 | -2.87213 | 36185 ft | 476 kts | 34° |
| 2026-05-01 11:27 | 40.48470 | -2.82037 | 36188 ft | 476 kts | 34° |
| 2026-05-01 11:27 | 40.53775 | -2.76837 | 36184 ft | 475 kts | 34° |
| 2026-05-01 11:28 | 40.59072 | -2.71630 | 36192 ft | 475 kts | 34° |
| 2026-05-01 11:28 | 40.64367 | -2.66424 | 36189 ft | 475 kts | 34° |
| 2026-05-01 11:29 | 40.72277 | -2.58641 | 36202 ft | 475 kts | 33° |
| 2026-05-01 11:30 | 40.80206 | -2.50812 | 36195 ft | 474 kts | 33° |
| 2026-05-01 11:30 | 40.85480 | -2.45582 | 36195 ft | 474 kts | 33° |
| 2026-05-01 11:31 | 40.90710 | -2.40385 | 36193 ft | 471 kts | 34° |
| 2026-05-01 11:31 | 40.95862 | -2.35253 | 36179 ft | 459 kts | 34° |
| 2026-05-01 11:32 | 41.00958 | -2.30175 | 36180 ft | 458 kts | 34° |
| 2026-05-01 11:32 | 41.06047 | -2.25098 | 36181 ft | 458 kts | 34° |
| 2026-05-01 11:33 | 41.11102 | -2.20035 | 36181 ft | 459 kts | 35° |
| 2026-05-01 11:33 | 41.16189 | -2.14935 | 36177 ft | 458 kts | 35° |
| 2026-05-01 11:34 | 41.21278 | -2.09829 | 36177 ft | 459 kts | 35° |
| 2026-05-01 11:34 | 41.26361 | -2.04708 | 36179 ft | 459 kts | 35° |
| 2026-05-01 11:35 | 41.31441 | -1.99581 | 36176 ft | 459 kts | 36° |
| 2026-05-01 11:35 | 41.36490 | -1.94475 | 36181 ft | 459 kts | 36° |
| 2026-05-01 11:36 | 41.41576 | -1.89322 | 36172 ft | 459 kts | 36° |
| 2026-05-01 11:36 | 41.46663 | -1.84170 | 36173 ft | 460 kts | 36° |
| 2026-05-01 11:37 | 41.51753 | -1.79000 | 36175 ft | 460 kts | 36° |
| 2026-05-01 11:37 | 41.56843 | -1.73809 | 36177 ft | 460 kts | 36° |
| 2026-05-01 11:38 | 41.61901 | -1.68648 | 36175 ft | 461 kts | 37° |
| 2026-05-01 11:38 | 41.66997 | -1.63440 | 36186 ft | 461 kts | 37° |
| 2026-05-01 11:39 | 41.72094 | -1.58215 | 36190 ft | 462 kts | 37° |
| 2026-05-01 11:39 | 41.77190 | -1.52979 | 36187 ft | 462 kts | 37° |
| 2026-05-01 11:40 | 41.82255 | -1.47761 | 36184 ft | 462 kts | 37° |
| 2026-05-01 11:40 | 41.87356 | -1.42495 | 36186 ft | 463 kts | 37° |
| 2026-05-01 11:41 | 41.92463 | -1.37214 | 36186 ft | 463 kts | 37° |
| 2026-05-01 11:41 | 41.97568 | -1.31925 | 36194 ft | 464 kts | 37° |
| 2026-05-01 11:42 | 42.02644 | -1.26663 | 36188 ft | 464 kts | 37° |
| 2026-05-01 11:42 | 42.07751 | -1.21353 | 36194 ft | 464 kts | 37° |
| 2026-05-01 11:43 | 42.12857 | -1.16034 | 36195 ft | 464 kts | 37° |
| 2026-05-01 11:43 | 42.17968 | -1.10703 | 36198 ft | 464 kts | 37° |
| 2026-05-01 11:44 | 42.25598 | -1.02727 | 36189 ft | 465 kts | 37° |
| 2026-05-01 11:44 | 42.30734 | -0.97323 | 36196 ft | 473 kts | 37° |
| 2026-05-01 11:45 | 42.35975 | -0.91801 | 36197 ft | 480 kts | 37° |
| 2026-05-01 11:45 | 42.41215 | -0.86272 | 36198 ft | 481 kts | 39° |
| 2026-05-01 11:46 | 42.45800 | -0.79680 | 36193 ft | 482 kts | 50° |
| 2026-05-01 11:46 | 42.49950 | -0.72559 | 36200 ft | 482 kts | 52° |
| 2026-05-01 11:47 | 42.54001 | -0.65336 | 36207 ft | 481 kts | 53° |
| 2026-05-01 11:47 | 42.58081 | -0.58132 | 36209 ft | 481 kts | 52° |
| 2026-05-01 11:48 | 42.62164 | -0.51024 | 36219 ft | 481 kts | 52° |
| 2026-05-01 11:48 | 42.66279 | -0.43870 | 36218 ft | 480 kts | 52° |
| 2026-05-01 11:49 | 42.70386 | -0.36706 | 36217 ft | 480 kts | 52° |
| 2026-05-01 11:49 | 42.74474 | -0.29522 | 36217 ft | 481 kts | 52° |
| 2026-05-01 11:50 | 42.78529 | -0.22362 | 36214 ft | 481 kts | 52° |
| 2026-05-01 11:50 | 42.82619 | -0.15139 | 36212 ft | 482 kts | 52° |
| 2026-05-01 11:51 | 42.86716 | -0.07909 | 36214 ft | 482 kts | 52° |
| 2026-05-01 11:51 | 42.90812 | -0.00664 | 36215 ft | 482 kts | 52° |
| 2026-05-01 11:52 | 42.94875 | 0.06543 | 36221 ft | 482 kts | 52° |
| 2026-05-01 11:52 | 42.98950 | 0.13800 | 36225 ft | 481 kts | 52° |
| 2026-05-01 11:53 | 43.03023 | 0.21057 | 36228 ft | 481 kts | 53° |
| 2026-05-01 11:53 | 43.07084 | 0.28317 | 36219 ft | 480 kts | 53° |
| 2026-05-01 11:54 | 43.11139 | 0.35589 | 36212 ft | 480 kts | 53° |
| 2026-05-01 11:54 | 43.15162 | 0.42811 | 36204 ft | 480 kts | 53° |
| 2026-05-01 11:55 | 43.19206 | 0.50099 | 36204 ft | 480 kts | 53° |
| 2026-05-01 11:55 | 43.23244 | 0.57400 | 36204 ft | 480 kts | 53° |
| 2026-05-01 11:56 | 43.27280 | 0.64706 | 36202 ft | 480 kts | 53° |
| 2026-05-01 11:56 | 43.31294 | 0.71963 | 36204 ft | 480 kts | 53° |
| 2026-05-01 11:57 | 43.34670 | 0.78097 | 36206 ft | 480 kts | 53° |
| 2026-05-01 11:57 | 43.39338 | 0.86616 | 36208 ft | 480 kts | 53° |
| 2026-05-01 11:58 | 43.43347 | 0.93964 | 36212 ft | 480 kts | 53° |
| 2026-05-01 11:59 | 43.49355 | 1.04981 | 36211 ft | 480 kts | 53° |
| 2026-05-01 11:59 | 43.53332 | 1.12285 | 36211 ft | 480 kts | 54° |
| 2026-05-01 12:00 | 43.59324 | 1.23351 | 36211 ft | 480 kts | 54° |
| 2026-05-01 12:01 | 43.65310 | 1.34443 | 36210 ft | 481 kts | 54° |
| 2026-05-01 12:01 | 43.69270 | 1.41805 | 36212 ft | 481 kts | 54° |
| 2026-05-01 12:02 | 43.73256 | 1.49232 | 36217 ft | 481 kts | 54° |
| 2026-05-01 12:02 | 43.77235 | 1.56663 | 36226 ft | 481 kts | 54° |
| 2026-05-01 12:03 | 43.80543 | 1.62845 | 36235 ft | 481 kts | 54° |
| 2026-05-01 12:03 | 43.85159 | 1.71490 | 36238 ft | 480 kts | 54° |
| 2026-05-01 12:04 | 43.89119 | 1.78940 | 36247 ft | 480 kts | 54° |
| 2026-05-01 12:04 | 43.93063 | 1.86396 | 36259 ft | 479 kts | 54° |
| 2026-05-01 12:05 | 43.96346 | 1.92582 | 36255 ft | 479 kts | 54° |
| 2026-05-01 12:05 | 44.02935 | 2.04924 | 36253 ft | 479 kts | 54° |
| 2026-05-01 12:06 | 44.06883 | 2.12374 | 36257 ft | 478 kts | 54° |
| 2026-05-01 12:06 | 44.10159 | 2.18576 | 36257 ft | 478 kts | 54° |
| 2026-05-01 12:07 | 44.14097 | 2.26048 | 36256 ft | 479 kts | 54° |
| 2026-05-01 12:07 | 44.18671 | 2.34750 | 36255 ft | 479 kts | 54° |
| 2026-05-01 12:08 | 44.21968 | 2.41044 | 36260 ft | 480 kts | 54° |
| 2026-05-01 12:08 | 44.25879 | 2.48520 | 36260 ft | 481 kts | 54° |
| 2026-05-01 12:09 | 44.29822 | 2.56057 | 36259 ft | 481 kts | 54° |
| 2026-05-01 12:09 | 44.34406 | 2.64852 | 36262 ft | 482 kts | 54° |
| 2026-05-01 12:10 | 44.39645 | 2.74959 | 36266 ft | 483 kts | 54° |
| 2026-05-01 12:11 | 44.45548 | 2.86382 | 36281 ft | 483 kts | 54° |
| 2026-05-01 12:11 | 44.49479 | 2.94003 | 36284 ft | 483 kts | 54° |
| 2026-05-01 12:12 | 44.53404 | 3.01633 | 36287 ft | 483 kts | 54° |
| 2026-05-01 12:12 | 44.57279 | 3.09211 | 36273 ft | 480 kts | 54° |
| 2026-05-01 12:13 | 44.61096 | 3.16887 | 36267 ft | 480 kts | 59° |
| 2026-05-01 12:13 | 44.64374 | 3.25052 | 36268 ft | 480 kts | 60° |
| 2026-05-01 12:14 | 44.67656 | 3.33230 | 36273 ft | 481 kts | 60° |
| 2026-05-01 12:14 | 44.70916 | 3.41361 | 36272 ft | 481 kts | 60° |
| 2026-05-01 12:15 | 44.74189 | 3.49577 | 36273 ft | 482 kts | 60° |
| 2026-05-01 12:15 | 44.77455 | 3.57803 | 36281 ft | 482 kts | 60° |
| 2026-05-01 12:16 | 44.80720 | 3.66036 | 36291 ft | 482 kts | 60° |
| 2026-05-01 12:16 | 44.83980 | 3.74278 | 36302 ft | 481 kts | 60° |
| 2026-05-01 12:17 | 44.87208 | 3.82470 | 36300 ft | 481 kts | 60° |
| 2026-05-01 12:17 | 44.90453 | 3.90725 | 36298 ft | 481 kts | 60° |
| 2026-05-01 12:18 | 44.93687 | 3.98985 | 36298 ft | 481 kts | 60° |
| 2026-05-01 12:18 | 44.96916 | 4.07251 | 36292 ft | 481 kts | 60° |
| 2026-05-01 12:19 | 45.00119 | 4.15476 | 36282 ft | 481 kts | 60° |
| 2026-05-01 12:19 | 45.03338 | 4.23764 | 36278 ft | 481 kts | 60° |
| 2026-05-01 12:20 | 45.06555 | 4.32060 | 36270 ft | 481 kts | 60° |
| 2026-05-01 12:20 | 45.09764 | 4.40376 | 36267 ft | 482 kts | 60° |
| 2026-05-01 12:21 | 45.13208 | 4.48477 | 36267 ft | 480 kts | 51° |
| 2026-05-01 12:21 | 45.17192 | 4.55982 | 36261 ft | 480 kts | 51° |
| 2026-05-01 12:22 | 45.21209 | 4.63528 | 36260 ft | 480 kts | 51° |
| 2026-05-01 12:22 | 45.25227 | 4.71090 | 36260 ft | 480 kts | 51° |
| 2026-05-01 12:23 | 45.29239 | 4.78670 | 36262 ft | 480 kts | 52° |
| 2026-05-01 12:23 | 45.33212 | 4.86213 | 36260 ft | 480 kts | 52° |
| 2026-05-01 12:24 | 45.37207 | 4.93814 | 36264 ft | 480 kts | 52° |
| 2026-05-01 12:24 | 45.41201 | 5.01427 | 36267 ft | 480 kts | 52° |
| 2026-05-01 12:25 | 45.47173 | 5.12861 | 36276 ft | 480 kts | 52° |
| 2026-05-01 12:26 | 45.51124 | 5.20458 | 36280 ft | 480 kts | 52° |
| 2026-05-01 12:26 | 45.57076 | 5.31939 | 36279 ft | 480 kts | 52° |
| 2026-05-01 12:27 | 45.63019 | 5.43427 | 36277 ft | 479 kts | 52° |
| 2026-05-01 12:28 | 45.68923 | 5.54862 | 36281 ft | 478 kts | 52° |
| 2026-05-01 12:29 | 45.74820 | 5.66371 | 36285 ft | 478 kts | 52° |
| 2026-05-01 12:29 | 45.80700 | 5.77895 | 36291 ft | 477 kts | 52° |
| 2026-05-01 12:30 | 45.86563 | 5.89413 | 36296 ft | 476 kts | 52° |
| 2026-05-01 12:31 | 45.90494 | 5.96964 | 36292 ft | 474 kts | 47° |
| 2026-05-01 12:31 | 45.95245 | 6.03503 | 36293 ft | 473 kts | 43° |
| 2026-05-01 12:32 | 45.99823 | 6.10301 | 36292 ft | 473 kts | 46° |
| 2026-05-01 12:32 | 46.06416 | 6.20783 | 36292 ft | 473 kts | 47° |
| 2026-05-01 12:33 | 46.10919 | 6.27684 | 36309 ft | 472 kts | 45° |
| 2026-05-01 12:33 | 46.15490 | 6.34486 | 36311 ft | 472 kts | 45° |
| 2026-05-01 12:34 | 46.20051 | 6.41306 | 36307 ft | 472 kts | 46° |
| 2026-05-01 12:34 | 46.24582 | 6.48163 | 36311 ft | 472 kts | 46° |
| 2026-05-01 12:35 | 46.29071 | 6.54984 | 36306 ft | 471 kts | 46° |
| 2026-05-01 12:35 | 46.33592 | 6.61844 | 36307 ft | 471 kts | 46° |
| 2026-05-01 12:36 | 46.38103 | 6.68716 | 36310 ft | 471 kts | 46° |
| 2026-05-01 12:36 | 46.42573 | 6.75559 | 36311 ft | 470 kts | 46° |
| 2026-05-01 12:37 | 46.47065 | 6.82448 | 36317 ft | 470 kts | 46° |
| 2026-05-01 12:37 | 46.51554 | 6.89342 | 36321 ft | 470 kts | 46° |
| 2026-05-01 12:38 | 46.56032 | 6.96243 | 36320 ft | 469 kts | 46° |
| 2026-05-01 12:38 | 46.60504 | 7.03150 | 36326 ft | 469 kts | 46° |
| 2026-05-01 12:39 | 46.64930 | 7.10012 | 36324 ft | 468 kts | 46° |
| 2026-05-01 12:39 | 46.69377 | 7.16916 | 36325 ft | 467 kts | 46° |
| 2026-05-01 12:40 | 46.73809 | 7.23819 | 36321 ft | 466 kts | 47° |
| 2026-05-01 12:40 | 46.78230 | 7.30717 | 36302 ft | 465 kts | 47° |
| 2026-05-01 12:41 | 46.82608 | 7.37566 | 36298 ft | 464 kts | 47° |
| 2026-05-01 12:41 | 46.86940 | 7.44556 | 36293 ft | 464 kts | 50° |
| 2026-05-01 12:42 | 46.90960 | 7.51913 | 36293 ft | 463 kts | 52° |
| 2026-05-01 12:42 | 46.94865 | 7.59396 | 36294 ft | 462 kts | 52° |
| 2026-05-01 12:43 | 46.98791 | 7.66770 | 36295 ft | 462 kts | 51° |
| 2026-05-01 12:43 | 47.02786 | 7.74144 | 36297 ft | 462 kts | 51° |
| 2026-05-01 12:44 | 47.06782 | 7.81521 | 36294 ft | 462 kts | 51° |
| 2026-05-01 12:45 | 47.14567 | 7.96477 | 36311 ft | 461 kts | 57° |
| 2026-05-01 12:45 | 47.17412 | 8.04819 | 36318 ft | 461 kts | 68° |
| 2026-05-01 12:46 | 47.19752 | 8.13594 | 36318 ft | 461 kts | 68° |
| 2026-05-01 12:46 | 47.22067 | 8.22374 | 36320 ft | 460 kts | 68° |
| 2026-05-01 12:47 | 47.24373 | 8.31158 | 36322 ft | 460 kts | 68° |
| 2026-05-01 12:47 | 47.26661 | 8.39878 | 36322 ft | 459 kts | 68° |
| 2026-05-01 12:48 | 47.28964 | 8.48645 | 36340 ft | 459 kts | 68° |
| 2026-05-01 12:48 | 47.31252 | 8.57410 | 36346 ft | 458 kts | 68° |
| 2026-05-01 12:49 | 47.33523 | 8.66182 | 36348 ft | 458 kts | 68° |
| 2026-05-01 12:49 | 47.35793 | 8.74951 | 36349 ft | 457 kts | 68° |
| 2026-05-01 12:50 | 47.38044 | 8.83651 | 36343 ft | 457 kts | 68° |
| 2026-05-01 12:50 | 47.40295 | 8.92417 | 36338 ft | 456 kts | 68° |
| 2026-05-01 12:51 | 47.42535 | 9.01182 | 36334 ft | 456 kts | 68° |
| 2026-05-01 12:52 | 47.45877 | 9.14300 | 36331 ft | 455 kts | 68° |
| 2026-05-01 12:52 | 47.49189 | 9.27374 | 36342 ft | 454 kts | 68° |
| 2026-05-01 12:53 | 47.52495 | 9.40501 | 36347 ft | 454 kts | 68° |
| 2026-05-01 12:54 | 47.54688 | 9.49246 | 36349 ft | 453 kts | 68° |
| 2026-05-01 12:54 | 47.57857 | 9.62373 | 36351 ft | 454 kts | 74° |
| 2026-05-01 12:55 | 47.58421 | 9.71684 | 36346 ft | 458 kts | 91° |
| 2026-05-01 12:55 | 47.58226 | 9.76390 | 36346 ft | 458 kts | 91° |
| 2026-05-01 12:56 | 47.57842 | 9.85805 | 36342 ft | 458 kts | 91° |
| 2026-05-01 12:56 | 47.57469 | 9.95212 | 36335 ft | 457 kts | 91° |
| 2026-05-01 12:57 | 47.57081 | 10.04543 | 36330 ft | 457 kts | 91° |
| 2026-05-01 12:57 | 47.56675 | 10.13912 | 36224 ft | 449 kts | 91° |
| 2026-05-01 12:57 | 47.56579 | 10.16099 | 35900 ft | 444 kts | 91° |
| 2026-05-01 12:58 | 47.56412 | 10.19870 | 35045 ft | 441 kts | 91° |
| 2026-05-01 12:58 | 47.56212 | 10.24383 | 34010 ft | 438 kts | 91° |
| 2026-05-01 12:58 | 47.56013 | 10.28880 | 32763 ft | 437 kts | 91° |
| 2026-05-01 12:59 | 47.55614 | 10.37835 | 29939 ft | 442 kts | 91° |
| 2026-05-01 12:59 | 47.55409 | 10.42361 | 28854 ft | 439 kts | 91° |
| 2026-05-01 12:59 | 47.55127 | 10.51264 | 27003 ft | 426 kts | 83° |
| 2026-05-01 13:00 | 47.56540 | 10.59543 | 25273 ft | 409 kts | 63° |
| 2026-05-01 13:00 | 47.57915 | 10.63191 | 24442 ft | 404 kts | 57° |
| 2026-05-01 13:01 | 47.60752 | 10.70202 | 22661 ft | 394 kts | 58° |
| 2026-05-01 13:01 | 47.62144 | 10.73670 | 21738 ft | 389 kts | 58° |
| 2026-05-01 13:01 | 47.64861 | 10.80468 | 19996 ft | 378 kts | 59° |
| 2026-05-01 13:02 | 47.66195 | 10.83803 | 19153 ft | 373 kts | 59° |
| 2026-05-01 13:07 | 48.00809 | 11.27811 | 9351 ft | 277 kts | 41° |
| 2026-05-01 13:07 | 48.02298 | 11.29594 | 9363 ft | 279 kts | 41° |
| 2026-05-01 13:07 | 48.03799 | 11.31393 | 9129 ft | 275 kts | 41° |
| 2026-05-01 13:08 | 48.05449 | 11.32806 | 8768 ft | 277 kts | 20° |
| 2026-05-01 13:08 | 48.07330 | 11.33475 | 8390 ft | 279 kts | 10° |
| 2026-05-01 13:08 | 48.09278 | 11.33430 | 8043 ft | 281 kts | 358° |
| 2026-05-01 13:08 | 48.11229 | 11.33185 | 7679 ft | 281 kts | 358° |
| 2026-05-01 13:09 | 48.13171 | 11.32932 | 7355 ft | 280 kts | 358° |
| 2026-05-01 13:09 | 48.15108 | 11.32678 | 6962 ft | 280 kts | 358° |
| 2026-05-01 13:09 | 48.17043 | 11.32423 | 6625 ft | 279 kts | 357° |
| 2026-05-01 13:09 | 48.18970 | 11.32167 | 6312 ft | 277 kts | 358° |
| 2026-05-01 13:10 | 48.20862 | 11.31920 | 5926 ft | 277 kts | 358° |
| 2026-05-01 13:10 | 48.22779 | 11.31675 | 5579 ft | 276 kts | 359° |
| 2026-05-01 13:10 | 48.24658 | 11.31860 | 5197 ft | 268 kts | 18° |
| 2026-05-01 13:10 | 48.26333 | 11.32956 | 5003 ft | 261 kts | 38° |
| 2026-05-01 13:11 | 48.27630 | 11.34723 | 4994 ft | 242 kts | 55° |
| 2026-05-01 13:11 | 48.28492 | 11.36778 | 5001 ft | 226 kts | 63° |
| 2026-05-01 13:11 | 48.29259 | 11.38781 | 5001 ft | 216 kts | 63° |
| 2026-05-01 13:11 | 48.30004 | 11.40722 | 4998 ft | 213 kts | 63° |
| 2026-05-01 13:12 | 48.30723 | 11.42586 | 5009 ft | 206 kts | 63° |
| 2026-05-01 13:12 | 48.31424 | 11.44413 | 5006 ft | 198 kts | 66° |
| 2026-05-01 13:12 | 48.31780 | 11.46319 | 5009 ft | 183 kts | 84° |
| 2026-05-01 13:12 | 48.31941 | 11.48204 | 4975 ft | 182 kts | 86° |
| 2026-05-01 13:13 | 48.32092 | 11.50079 | 4787 ft | 179 kts | 85° |
| 2026-05-01 13:13 | 48.32242 | 11.51954 | 4546 ft | 181 kts | 85° |
| 2026-05-01 13:13 | 48.32390 | 11.53805 | 4325 ft | 177 kts | 84° |
| 2026-05-01 13:13 | 48.32535 | 11.55624 | 4086 ft | 172 kts | 84° |
| 2026-05-01 13:14 | 48.32672 | 11.57354 | 3887 ft | 164 kts | 84° |
| 2026-05-01 13:14 | 48.32805 | 11.59026 | 3686 ft | 157 kts | 83° |
| 2026-05-01 13:14 | 48.32931 | 11.60625 | 3454 ft | 151 kts | 83° |
| 2026-05-01 13:14 | 48.33050 | 11.62132 | 3252 ft | 141 kts | 83° |
| 2026-05-01 13:15 | 48.33163 | 11.63569 | 3073 ft | 136 kts | 83° |
| 2026-05-01 13:15 | 48.33271 | 11.64944 | 2909 ft | 133 kts | 83° |
| 2026-05-01 13:15 | 48.33383 | 11.66330 | 2753 ft | 134 kts | 84° |
| 2026-05-01 13:15 | 48.33492 | 11.67716 | 2581 ft | 133 kts | 82° |
| 2026-05-01 13:16 | 48.33603 | 11.69090 | 2368 ft | 133 kts | 82° |
| 2026-05-01 13:16 | 48.33719 | 11.70473 | 2167 ft | 133 kts | 85° |
| 2026-05-01 13:16 | 48.33812 | 11.71853 | 1930 ft | 132 kts | 84° |
| 2026-05-01 13:17 | 48.34133 | 11.75916 | 1490 ft | 121 kts | 84° |
| 2026-05-01 13:17 | 48.34210 | 11.76971 | 1481 ft | 78 kts | 83° |
| 2026-05-01 13:18 | 48.34279 | 11.77847 | 1477 ft | 28 kts | 83° |
| 2026-05-01 13:18 | 48.34305 | 11.78120 | 1483 ft | 28 kts | 78° |
| 2026-05-01 13:18 | 48.34394 | 11.78384 | 1477 ft | 28 kts | 53° |
| 2026-05-01 13:18 | 48.34501 | 11.78604 | 1478 ft | 20 kts | 54° |
| 2026-05-01 13:19 | 48.34545 | 11.78690 | 1478 ft | 7 kts | 53° |
| 2026-05-01 13:19 | 48.34577 | 11.78758 | 1471 ft | 9 kts | 55° |
| 2026-05-01 13:19 | 48.34634 | 11.78940 | 1485 ft | 11 kts | 82° |
| 2026-05-01 13:20 | 48.34644 | 11.79061 | 1482 ft | 12 kts | 83° |
| 2026-05-01 13:20 | 48.34654 | 11.79194 | 1481 ft | 13 kts | 83° |
| 2026-05-01 13:20 | 48.34665 | 11.79333 | 1485 ft | 14 kts | 83° |
| 2026-05-01 13:21 | 48.34698 | 11.79541 | 1482 ft | 0 kts | 42° |
| 2026-05-01 13:21 | 48.34699 | 11.79542 | 1482 ft | 0 kts | 42° |
| 2026-05-01 13:21 | 48.34714 | 11.79552 | 1471 ft | 8 kts | 17° |
| 2026-05-01 13:21 | 48.34769 | 11.79554 | 1476 ft | 7 kts | 4° |
| 2026-05-01 13:22 | 48.34831 | 11.79559 | 1482 ft | 12 kts | 360° |
| 2026-05-01 13:22 | 48.34918 | 11.79547 | 1485 ft | 12 kts | 353° |
| 2026-05-01 13:22 | 48.34972 | 11.79554 | 1485 ft | 5 kts | 38° |
| 2026-05-01 13:22 | 48.35003 | 11.79585 | 1469 ft | 6 kts | 28° |
| 2026-05-01 13:23 | 48.35040 | 11.79593 | 1474 ft | 5 kts | 6° |
| 2026-05-01 13:23 | 48.35075 | 11.79644 | 1478 ft | 13 kts | 56° |
| 2026-05-01 13:23 | 48.35107 | 11.79774 | 1485 ft | 14 kts | 82° |
| 2026-05-01 13:23 | 48.35118 | 11.79932 | 1485 ft | 16 kts | 84° |
| 2026-05-01 13:24 | 48.35131 | 11.80101 | 1480 ft | 16 kts | 83° |
| 2026-05-01 13:24 | 48.35204 | 11.80188 | 1477 ft | 15 kts | 352° |
| 2026-05-01 13:24 | 48.35282 | 11.80172 | 1485 ft | 10 kts | 353° |
| 2026-05-01 13:25 | 48.35328 | 11.80094 | 1478 ft | 5 kts | 261° |
| 2026-05-01 13:25 | 48.35324 | 11.80046 | 1485 ft | 4 kts | 263° |
| 2026-05-01 13:25 | 48.35321 | 11.80013 | 1485 ft | 2 kts | 263° |
| 2026-05-01 13:25 | 48.35320 | 11.80000 | 1485 ft | 0 kts | 263° |